sensor_id;sensor_type;location;lat;lon;timestamp;temperature;humidity
3356;DHT22;1691;52.486;13.374;2023-09-12T00:02:15;21.60;71.50
3356;DHT22;1691;52.486;13.374;2023-09-12T00:04:42;21.50;71.80
3356;DHT22;1691;52.486;13.374;2023-09-12T00:07:10;21.50;71.80
3356;DHT22;1691;52.486;13.374;2023-09-12T00:09:37;21.50;72.20
3356;DHT22;1691;52.486;13.374;2023-09-12T00:12:04;21.40;72.40
3356;DHT22;1691;52.486;13.374;2023-09-12T00:14:31;21.40;72.80
3356;DHT22;1691;52.486;13.374;2023-09-12T00:16:58;21.40;73.10
3356;DHT22;1691;52.486;13.374;2023-09-12T00:19:25;21.30;73.10
3356;DHT22;1691;52.486;13.374;2023-09-12T00:21:56;21.30;73.30
3356;DHT22;1691;52.486;13.374;2023-09-12T00:24:24;21.20;73.50
3356;DHT22;1691;52.486;13.374;2023-09-12T00:26:52;21.20;73.70
3356;DHT22;1691;52.486;13.374;2023-09-12T00:29:20;21.20;73.70
3356;DHT22;1691;52.486;13.374;2023-09-12T00:31:47;21.10;73.70
3356;DHT22;1691;52.486;13.374;2023-09-12T00:34:18;21.10;73.70
3356;DHT22;1691;52.486;13.374;2023-09-12T00:36:46;21.10;73.50
3356;DHT22;1691;52.486;13.374;2023-09-12T00:39:13;21.10;73.70
3356;DHT22;1691;52.486;13.374;2023-09-12T00:41:41;21.00;73.70
3356;DHT22;1691;52.486;13.374;2023-09-12T00:44:10;21.00;73.70
3356;DHT22;1691;52.486;13.374;2023-09-12T00:46:38;21.00;73.70
3356;DHT22;1691;52.486;13.374;2023-09-12T00:49:06;21.00;73.70
3356;DHT22;1691;52.486;13.374;2023-09-12T00:51:39;21.00;73.70
3356;DHT22;1691;52.486;13.374;2023-09-12T00:54:08;21.00;73.90
3356;DHT22;1691;52.486;13.374;2023-09-12T00:56:39;21.00;73.90
3356;DHT22;1691;52.486;13.374;2023-09-12T00:59:07;20.90;74.10
3356;DHT22;1691;52.486;13.374;2023-09-12T01:01:36;20.90;74.10
3356;DHT22;1691;52.486;13.374;2023-09-12T01:04:04;20.90;74.10
3356;DHT22;1691;52.486;13.374;2023-09-12T01:06:40;20.90;74.20
3356;DHT22;1691;52.486;13.374;2023-09-12T01:09:08;20.90;74.20
3356;DHT22;1691;52.486;13.374;2023-09-12T01:11:39;20.90;74.40
3356;DHT22;1691;52.486;13.374;2023-09-12T01:14:07;20.80;74.40
3356;DHT22;1691;52.486;13.374;2023-09-12T01:16:38;20.80;74.60
3356;DHT22;1691;52.486;13.374;2023-09-12T01:19:06;20.80;74.80
3356;DHT22;1691;52.486;13.374;2023-09-12T01:29:53;20.60;75.60
3356;DHT22;1691;52.486;13.374;2023-09-12T01:32:26;20.60;75.60
3356;DHT22;1691;52.486;13.374;2023-09-12T01:34:54;20.60;75.70
3356;DHT22;1691;52.486;13.374;2023-09-12T01:37:25;20.60;75.90
3356;DHT22;1691;52.486;13.374;2023-09-12T01:39:56;20.50;75.90
3356;DHT22;1691;52.486;13.374;2023-09-12T01:42:36;20.50;76.10
3356;DHT22;1691;52.486;13.374;2023-09-12T01:45:06;20.50;76.30
3356;DHT22;1691;52.486;13.374;2023-09-12T01:47:37;20.50;76.30
3356;DHT22;1691;52.486;13.374;2023-09-12T01:50:09;20.50;76.50
3356;DHT22;1691;52.486;13.374;2023-09-12T01:52:41;20.40;76.70
3356;DHT22;1691;52.486;13.374;2023-09-12T01:55:09;20.40;76.90
3356;DHT22;1691;52.486;13.374;2023-09-12T01:57:41;20.40;77.00
3356;DHT22;1691;52.486;13.374;2023-09-12T02:00:13;20.40;77.00
3356;DHT22;1691;52.486;13.374;2023-09-12T02:02:41;20.40;77.20
3356;DHT22;1691;52.486;13.374;2023-09-12T02:05:15;20.40;77.20
3356;DHT22;1691;52.486;13.374;2023-09-12T02:07:47;20.40;77.60
3356;DHT22;1691;52.486;13.374;2023-09-12T02:10:16;20.30;77.60
3356;DHT22;1691;52.486;13.374;2023-09-12T02:12:44;20.30;77.80
3356;DHT22;1691;52.486;13.374;2023-09-12T02:15:11;20.30;77.80
3356;DHT22;1691;52.486;13.374;2023-09-12T02:17:39;20.30;78.00
3356;DHT22;1691;52.486;13.374;2023-09-12T02:20:08;20.30;78.00
3356;DHT22;1691;52.486;13.374;2023-09-12T02:22:37;20.30;78.20
3356;DHT22;1691;52.486;13.374;2023-09-12T02:25:05;20.30;78.20
3356;DHT22;1691;52.486;13.374;2023-09-12T02:27:35;20.30;78.20
3356;DHT22;1691;52.486;13.374;2023-09-12T02:30:03;20.30;78.30
3356;DHT22;1691;52.486;13.374;2023-09-12T02:32:31;20.20;78.50
3356;DHT22;1691;52.486;13.374;2023-09-12T02:34:58;20.20;78.70
3356;DHT22;1691;52.486;13.374;2023-09-12T02:37:25;20.20;78.90
3356;DHT22;1691;52.486;13.374;2023-09-12T02:39:52;20.20;79.10
3356;DHT22;1691;52.486;13.374;2023-09-12T02:42:19;20.20;79.10
3356;DHT22;1691;52.486;13.374;2023-09-12T02:44:46;20.20;79.30
3356;DHT22;1691;52.486;13.374;2023-09-12T02:47:14;20.20;79.10
3356;DHT22;1691;52.486;13.374;2023-09-12T02:49:41;20.20;79.10
3356;DHT22;1691;52.486;13.374;2023-09-12T02:52:08;20.10;79.10
3356;DHT22;1691;52.486;13.374;2023-09-12T02:54:35;20.10;79.30
3356;DHT22;1691;52.486;13.374;2023-09-12T02:57:03;20.10;79.30
3356;DHT22;1691;52.486;13.374;2023-09-12T02:59:30;20.00;79.30
3356;DHT22;1691;52.486;13.374;2023-09-12T03:01:57;20.00;79.30
3356;DHT22;1691;52.486;13.374;2023-09-12T03:04:25;20.00;79.30
3356;DHT22;1691;52.486;13.374;2023-09-12T03:06:55;20.00;79.30
3356;DHT22;1691;52.486;13.374;2023-09-12T03:09:22;20.00;79.30
3356;DHT22;1691;52.486;13.374;2023-09-12T03:11:50;20.00;79.50
3356;DHT22;1691;52.486;13.374;2023-09-12T03:14:17;20.10;79.50
3356;DHT22;1691;52.486;13.374;2023-09-12T03:16:44;20.10;79.50
3356;DHT22;1691;52.486;13.374;2023-09-12T03:19:11;20.10;79.50
3356;DHT22;1691;52.486;13.374;2023-09-12T03:21:38;20.10;79.50
3356;DHT22;1691;52.486;13.374;2023-09-12T03:24:05;20.10;79.50
3356;DHT22;1691;52.486;13.374;2023-09-12T03:26:34;20.00;79.70
3356;DHT22;1691;52.486;13.374;2023-09-12T03:29:03;20.00;79.70
3356;DHT22;1691;52.486;13.374;2023-09-12T03:31:31;20.00;79.80
3356;DHT22;1691;52.486;13.374;2023-09-12T03:33:58;20.00;79.80
3356;DHT22;1691;52.486;13.374;2023-09-12T03:36:25;20.00;79.80
3356;DHT22;1691;52.486;13.374;2023-09-12T03:38:52;19.90;80.00
3356;DHT22;1691;52.486;13.374;2023-09-12T03:41:19;19.90;80.20
3356;DHT22;1691;52.486;13.374;2023-09-12T03:43:48;19.90;80.40
3356;DHT22;1691;52.486;13.374;2023-09-12T03:46:15;19.80;80.40
3356;DHT22;1691;52.486;13.374;2023-09-12T03:48:42;19.80;80.60
3356;DHT22;1691;52.486;13.374;2023-09-12T03:51:10;19.80;80.80
3356;DHT22;1691;52.486;13.374;2023-09-12T03:53:37;19.80;80.80
3356;DHT22;1691;52.486;13.374;2023-09-12T03:56:04;19.80;81.00
3356;DHT22;1691;52.486;13.374;2023-09-12T03:58:31;19.80;81.00
3356;DHT22;1691;52.486;13.374;2023-09-12T04:00:58;19.80;81.10
3356;DHT22;1691;52.486;13.374;2023-09-12T04:03:25;19.70;81.30
3356;DHT22;1691;52.486;13.374;2023-09-12T04:05:53;19.70;81.30
3356;DHT22;1691;52.486;13.374;2023-09-12T04:08:20;19.60;81.50
3356;DHT22;1691;52.486;13.374;2023-09-12T04:10:47;19.60;81.50
3356;DHT22;1691;52.486;13.374;2023-09-12T04:13:14;19.60;81.70
3356;DHT22;1691;52.486;13.374;2023-09-12T04:15:41;19.60;81.70
3356;DHT22;1691;52.486;13.374;2023-09-12T04:18:08;19.60;81.90
3356;DHT22;1691;52.486;13.374;2023-09-12T04:20:35;19.60;81.70
3356;DHT22;1691;52.486;13.374;2023-09-12T04:23:03;19.60;81.70
3356;DHT22;1691;52.486;13.374;2023-09-12T04:25:30;19.60;81.70
3356;DHT22;1691;52.486;13.374;2023-09-12T04:27:58;19.50;81.70
3356;DHT22;1691;52.486;13.374;2023-09-12T04:30:25;19.50;81.90
3356;DHT22;1691;52.486;13.374;2023-09-12T04:32:52;19.50;82.10
3356;DHT22;1691;52.486;13.374;2023-09-12T04:35:19;19.50;82.10
3356;DHT22;1691;52.486;13.374;2023-09-12T04:37:47;19.50;82.30
3356;DHT22;1691;52.486;13.374;2023-09-12T04:40:14;19.50;82.40
3356;DHT22;1691;52.486;13.374;2023-09-12T04:42:42;19.50;82.60
3356;DHT22;1691;52.486;13.374;2023-09-12T04:45:09;19.50;82.60
3356;DHT22;1691;52.486;13.374;2023-09-12T04:47:36;19.50;82.60
3356;DHT22;1691;52.486;13.374;2023-09-12T04:50:03;19.60;82.60
3356;DHT22;1691;52.486;13.374;2023-09-12T04:52:31;19.60;82.40
3356;DHT22;1691;52.486;13.374;2023-09-12T04:55:00;19.60;82.40
3356;DHT22;1691;52.486;13.374;2023-09-12T04:57:27;19.60;82.30
3356;DHT22;1691;52.486;13.374;2023-09-12T04:59:57;19.60;82.30
3356;DHT22;1691;52.486;13.374;2023-09-12T05:02:25;19.70;82.30
3356;DHT22;1691;52.486;13.374;2023-09-12T05:04:52;19.80;82.10
3356;DHT22;1691;52.486;13.374;2023-09-12T05:07:20;19.90;81.70
3356;DHT22;1691;52.486;13.374;2023-09-12T05:09:47;20.00;81.30
3356;DHT22;1691;52.486;13.374;2023-09-12T05:12:27;20.10;81.10
3356;DHT22;1691;52.486;13.374;2023-09-12T05:14:54;20.20;80.80
3356;DHT22;1691;52.486;13.374;2023-09-12T05:17:21;20.30;80.80
3356;DHT22;1691;52.486;13.374;2023-09-12T05:19:48;20.40;80.60
3356;DHT22;1691;52.486;13.374;2023-09-12T05:22:15;20.70;80.00
3356;DHT22;1691;52.486;13.374;2023-09-12T05:24:42;21.00;79.50
3356;DHT22;1691;52.486;13.374;2023-09-12T05:27:10;21.40;78.50
3356;DHT22;1691;52.486;13.374;2023-09-12T05:29:37;21.80;77.00
3356;DHT22;1691;52.486;13.374;2023-09-12T05:32:05;22.30;75.70
3356;DHT22;1691;52.486;13.374;2023-09-12T05:34:32;22.70;74.10
3356;DHT22;1691;52.486;13.374;2023-09-12T05:36:59;23.10;72.40
3356;DHT22;1691;52.486;13.374;2023-09-12T05:39:26;23.50;70.90
3356;DHT22;1691;52.486;13.374;2023-09-12T05:41:53;23.90;69.60
3356;DHT22;1691;52.486;13.374;2023-09-12T05:44:20;24.30;68.10
3356;DHT22;1691;52.486;13.374;2023-09-12T05:46:47;24.60;66.60
3356;DHT22;1691;52.486;13.374;2023-09-12T05:49:15;25.00;65.10
3356;DHT22;1691;52.486;13.374;2023-09-12T05:51:42;25.30;63.80
3356;DHT22;1691;52.486;13.374;2023-09-12T05:54:10;25.70;62.50
3356;DHT22;1691;52.486;13.374;2023-09-12T05:56:40;26.00;61.20
3356;DHT22;1691;52.486;13.374;2023-09-12T05:59:07;26.20;60.10
3356;DHT22;1691;52.486;13.374;2023-09-12T06:01:34;26.50;59.20
3356;DHT22;1691;52.486;13.374;2023-09-12T06:04:01;26.80;58.20
3356;DHT22;1691;52.486;13.374;2023-09-12T06:06:28;27.20;57.00
3356;DHT22;1691;52.486;13.374;2023-09-12T06:08:55;27.60;55.80
3356;DHT22;1691;52.486;13.374;2023-09-12T06:11:23;28.00;54.50
3356;DHT22;1691;52.486;13.374;2023-09-12T06:13:50;28.40;53.50
3356;DHT22;1691;52.486;13.374;2023-09-12T06:16:17;28.90;52.40
3356;DHT22;1691;52.486;13.374;2023-09-12T06:18:45;29.30;51.20
3356;DHT22;1691;52.486;13.374;2023-09-12T06:21:12;29.70;49.90
3356;DHT22;1691;52.486;13.374;2023-09-12T06:23:39;30.10;48.70
3356;DHT22;1691;52.486;13.374;2023-09-12T06:26:06;30.50;47.60
3356;DHT22;1691;52.486;13.374;2023-09-12T06:28:33;30.90;46.70
3356;DHT22;1691;52.486;13.374;2023-09-12T06:31:00;31.20;45.60
3356;DHT22;1691;52.486;13.374;2023-09-12T06:33:27;31.40;45.00
3356;DHT22;1691;52.486;13.374;2023-09-12T06:35:55;31.70;44.10
3356;DHT22;1691;52.486;13.374;2023-09-12T06:38:22;32.20;43.30
3356;DHT22;1691;52.486;13.374;2023-09-12T06:40:50;32.50;42.20
3356;DHT22;1691;52.486;13.374;2023-09-12T06:43:18;32.90;41.50
3356;DHT22;1691;52.486;13.374;2023-09-12T06:45:45;33.30;40.90
3356;DHT22;1691;52.486;13.374;2023-09-12T06:48:12;33.80;39.80
3356;DHT22;1691;52.486;13.374;2023-09-12T06:50:40;34.30;38.90
3356;DHT22;1691;52.486;13.374;2023-09-12T06:53:08;34.80;37.80
3356;DHT22;1691;52.486;13.374;2023-09-12T06:55:36;35.20;37.00
3356;DHT22;1691;52.486;13.374;2023-09-12T06:58:04;35.60;36.20
3356;DHT22;1691;52.486;13.374;2023-09-12T07:00:31;35.90;35.50
3356;DHT22;1691;52.486;13.374;2023-09-12T07:02:58;36.20;34.70
3356;DHT22;1691;52.486;13.374;2023-09-12T07:05:25;36.50;34.10
3356;DHT22;1691;52.486;13.374;2023-09-12T07:07:52;36.70;33.50
3356;DHT22;1691;52.486;13.374;2023-09-12T07:10:19;36.90;32.90
3356;DHT22;1691;52.486;13.374;2023-09-12T07:12:53;37.10;32.20
3356;DHT22;1691;52.486;13.374;2023-09-12T07:15:21;37.40;31.80
3356;DHT22;1691;52.486;13.374;2023-09-12T07:17:48;37.70;31.00
3356;DHT22;1691;52.486;13.374;2023-09-12T07:20:15;38.00;30.40
3356;DHT22;1691;52.486;13.374;2023-09-12T07:22:44;38.30;29.90
3356;DHT22;1691;52.486;13.374;2023-09-12T07:25:13;38.50;29.60
3356;DHT22;1691;52.486;13.374;2023-09-12T07:27:40;38.70;29.30
3356;DHT22;1691;52.486;13.374;2023-09-12T07:30:08;38.90;29.10
3356;DHT22;1691;52.486;13.374;2023-09-12T07:32:36;39.10;28.80
3356;DHT22;1691;52.486;13.374;2023-09-12T07:35:03;39.50;28.50
3356;DHT22;1691;52.486;13.374;2023-09-12T07:37:31;39.70;28.20
3356;DHT22;1691;52.486;13.374;2023-09-12T07:39:57;39.90;28.00
3356;DHT22;1691;52.486;13.374;2023-09-12T07:42:25;40.20;27.70
3356;DHT22;1691;52.486;13.374;2023-09-12T07:44:52;40.40;27.40
3356;DHT22;1691;52.486;13.374;2023-09-12T07:47:19;40.70;27.10
3356;DHT22;1691;52.486;13.374;2023-09-12T07:49:53;40.80;26.90
3356;DHT22;1691;52.486;13.374;2023-09-12T07:52:21;41.10;26.60
3356;DHT22;1691;52.486;13.374;2023-09-12T07:54:49;41.20;26.50
3356;DHT22;1691;52.486;13.374;2023-09-12T07:57:19;41.40;26.30
3356;DHT22;1691;52.486;13.374;2023-09-12T07:59:46;41.60;26.20
3356;DHT22;1691;52.486;13.374;2023-09-12T08:02:13;41.90;25.90
3356;DHT22;1691;52.486;13.374;2023-09-12T08:04:40;41.90;25.80
3356;DHT22;1691;52.486;13.374;2023-09-12T08:07:07;41.90;25.80
3356;DHT22;1691;52.486;13.374;2023-09-12T08:09:54;41.70;25.90
3356;DHT22;1691;52.486;13.374;2023-09-12T08:12:27;41.70;25.80
3356;DHT22;1691;52.486;13.374;2023-09-12T08:14:55;41.80;25.80
3356;DHT22;1691;52.486;13.374;2023-09-12T08:17:22;42.00;25.80
3356;DHT22;1691;52.486;13.374;2023-09-12T08:19:50;42.20;25.50
3356;DHT22;1691;52.486;13.374;2023-09-12T08:22:17;42.40;25.20
3356;DHT22;1691;52.486;13.374;2023-09-12T08:24:45;42.50;25.00
3356;DHT22;1691;52.486;13.374;2023-09-12T08:27:12;42.50;24.90
3356;DHT22;1691;52.486;13.374;2023-09-12T08:29:40;42.50;24.80
3356;DHT22;1691;52.486;13.374;2023-09-12T08:32:08;42.70;24.70
3356;DHT22;1691;52.486;13.374;2023-09-12T08:34:35;42.80;24.50
3356;DHT22;1691;52.486;13.374;2023-09-12T08:37:02;42.80;24.50
3356;DHT22;1691;52.486;13.374;2023-09-12T08:39:44;42.90;24.40
3356;DHT22;1691;52.486;13.374;2023-09-12T08:42:13;42.70;24.20
3356;DHT22;1691;52.486;13.374;2023-09-12T08:44:42;42.50;24.50
3356;DHT22;1691;52.486;13.374;2023-09-12T08:47:11;42.50;24.50
3356;DHT22;1691;52.486;13.374;2023-09-12T08:49:39;42.40;24.40
3356;DHT22;1691;52.486;13.374;2023-09-12T08:52:06;42.40;24.40
3356;DHT22;1691;52.486;13.374;2023-09-12T08:54:33;42.50;24.30
3356;DHT22;1691;52.486;13.374;2023-09-12T08:57:05;42.60;24.30
3356;DHT22;1691;52.486;13.374;2023-09-12T08:59:34;42.40;24.20
3356;DHT22;1691;52.486;13.374;2023-09-12T09:02:03;42.10;24.40
3356;DHT22;1691;52.486;13.374;2023-09-12T09:04:33;41.70;24.70
3356;DHT22;1691;52.486;13.374;2023-09-12T09:07:02;41.50;24.80
3356;DHT22;1691;52.486;13.374;2023-09-12T09:09:30;41.60;24.90
3356;DHT22;1691;52.486;13.374;2023-09-12T09:11:58;41.80;24.80
3356;DHT22;1691;52.486;13.374;2023-09-12T09:14:25;42.00;24.80
3356;DHT22;1691;52.486;13.374;2023-09-12T09:16:52;42.00;24.80
3356;DHT22;1691;52.486;13.374;2023-09-12T09:19:19;42.10;24.90
3356;DHT22;1691;52.486;13.374;2023-09-12T09:21:47;42.20;24.90
3356;DHT22;1691;52.486;13.374;2023-09-12T09:24:14;42.10;24.90
3356;DHT22;1691;52.486;13.374;2023-09-12T09:26:51;42.00;25.00
3356;DHT22;1691;52.486;13.374;2023-09-12T09:29:26;41.90;25.10
3356;DHT22;1691;52.486;13.374;2023-09-12T09:32:00;41.60;25.40
3356;DHT22;1691;52.486;13.374;2023-09-12T09:34:27;41.20;25.70
3356;DHT22;1691;52.486;13.374;2023-09-12T09:36:57;40.80;26.00
3356;DHT22;1691;52.486;13.374;2023-09-12T09:39:26;40.40;26.50
3356;DHT22;1691;52.486;13.374;2023-09-12T09:41:56;40.10;26.90
3356;DHT22;1691;52.486;13.374;2023-09-12T09:44:25;40.00;27.30
3356;DHT22;1691;52.486;13.374;2023-09-12T09:47:00;39.90;27.60
3356;DHT22;1691;52.486;13.374;2023-09-12T09:49:32;39.80;27.90
3356;DHT22;1691;52.486;13.374;2023-09-12T09:52:04;39.80;28.00
3356;DHT22;1691;52.486;13.374;2023-09-12T09:54:31;39.80;28.20
3356;DHT22;1691;52.486;13.374;2023-09-12T09:56:58;39.60;28.50
3356;DHT22;1691;52.486;13.374;2023-09-12T09:59:26;39.40;28.70
3356;DHT22;1691;52.486;13.374;2023-09-12T10:01:59;39.20;29.00
3356;DHT22;1691;52.486;13.374;2023-09-12T10:04:28;38.90;29.20
3356;DHT22;1691;52.486;13.374;2023-09-12T10:06:57;38.60;29.60
3356;DHT22;1691;52.486;13.374;2023-09-12T10:09:28;38.40;29.90
3356;DHT22;1691;52.486;13.374;2023-09-12T10:11:58;38.30;30.40
3356;DHT22;1691;52.486;13.374;2023-09-12T10:14:27;38.10;30.70
3356;DHT22;1691;52.486;13.374;2023-09-12T10:17:01;38.10;30.90
3356;DHT22;1691;52.486;13.374;2023-09-12T10:19:43;38.00;31.00
3356;DHT22;1691;52.486;13.374;2023-09-12T10:22:25;37.70;31.30
3356;DHT22;1691;52.486;13.374;2023-09-12T10:24:56;37.40;31.90
3356;DHT22;1691;52.486;13.374;2023-09-12T10:27:24;37.10;32.20
3356;DHT22;1691;52.486;13.374;2023-09-12T10:29:52;36.90;32.70
3356;DHT22;1691;52.486;13.374;2023-09-12T10:32:21;36.60;33.20
3356;DHT22;1691;52.486;13.374;2023-09-12T10:34:49;36.40;33.60
3356;DHT22;1691;52.486;13.374;2023-09-12T10:37:16;36.50;33.80
3356;DHT22;1691;52.486;13.374;2023-09-12T10:39:44;36.50;33.60
3356;DHT22;1691;52.486;13.374;2023-09-12T10:42:12;36.50;33.80
3356;DHT22;1691;52.486;13.374;2023-09-12T10:44:39;36.40;33.80
3356;DHT22;1691;52.486;13.374;2023-09-12T10:47:07;36.30;33.60
3356;DHT22;1691;52.486;13.374;2023-09-12T10:49:35;36.40;33.50
3356;DHT22;1691;52.486;13.374;2023-09-12T10:52:03;36.50;33.30
3356;DHT22;1691;52.486;13.374;2023-09-12T10:54:40;36.60;33.30
3356;DHT22;1691;52.486;13.374;2023-09-12T10:57:09;36.60;33.30
3356;DHT22;1691;52.486;13.374;2023-09-12T11:02:42;36.50;33.30
3356;DHT22;1691;52.486;13.374;2023-09-12T11:07:59;36.40;33.60
3356;DHT22;1691;52.486;13.374;2023-09-12T11:10:28;36.10;34.10
3356;DHT22;1691;52.486;13.374;2023-09-12T11:12:58;35.80;34.70
3356;DHT22;1691;52.486;13.374;2023-09-12T11:15:27;35.50;35.00
3356;DHT22;1691;52.486;13.374;2023-09-12T11:18:03;35.30;35.50
3356;DHT22;1691;52.486;13.374;2023-09-12T11:21:00;35.00;36.10
3356;DHT22;1691;52.486;13.374;2023-09-12T11:23:30;34.70;37.00
3356;DHT22;1691;52.486;13.374;2023-09-12T11:26:05;34.20;37.80
3356;DHT22;1691;52.486;13.374;2023-09-12T11:28:33;33.80;38.90
3356;DHT22;1691;52.486;13.374;2023-09-12T11:31:00;33.60;39.50
3356;DHT22;1691;52.486;13.374;2023-09-12T11:33:28;33.30;40.20
3356;DHT22;1691;52.486;13.374;2023-09-12T11:35:55;33.10;40.90
3356;DHT22;1691;52.486;13.374;2023-09-12T11:38:31;32.80;41.30
3356;DHT22;1691;52.486;13.374;2023-09-12T11:40:59;32.70;42.10
3356;DHT22;1691;52.486;13.374;2023-09-12T11:43:27;32.50;42.20
3356;DHT22;1691;52.486;13.374;2023-09-12T11:45:56;32.30;42.70
3356;DHT22;1691;52.486;13.374;2023-09-12T11:48:24;32.10;43.20
3356;DHT22;1691;52.486;13.374;2023-09-12T11:50:56;32.00;43.50
3356;DHT22;1691;52.486;13.374;2023-09-12T11:53:28;31.90;43.80
3356;DHT22;1691;52.486;13.374;2023-09-12T11:55:59;31.90;43.90
3356;DHT22;1691;52.486;13.374;2023-09-12T11:58:27;31.80;43.90
3356;DHT22;1691;52.486;13.374;2023-09-12T12:00:56;31.70;44.10
3356;DHT22;1691;52.486;13.374;2023-09-12T12:03:26;31.60;44.20
3356;DHT22;1691;52.486;13.374;2023-09-12T12:05:55;31.60;44.50
3356;DHT22;1691;52.486;13.374;2023-09-12T12:08:23;31.40;44.70
3356;DHT22;1691;52.486;13.374;2023-09-12T12:10:53;31.30;45.20
3356;DHT22;1691;52.486;13.374;2023-09-12T12:13:22;31.20;45.50
3356;DHT22;1691;52.486;13.374;2023-09-12T12:15:50;31.20;45.60
3356;DHT22;1691;52.486;13.374;2023-09-12T12:18:18;31.10;45.80
3356;DHT22;1691;52.486;13.374;2023-09-12T12:20:46;31.10;45.90
3356;DHT22;1691;52.486;13.374;2023-09-12T12:23:13;31.20;45.90
3356;DHT22;1691;52.486;13.374;2023-09-12T12:25:40;31.20;46.10
3356;DHT22;1691;52.486;13.374;2023-09-12T12:28:07;31.20;46.10
3356;DHT22;1691;52.486;13.374;2023-09-12T12:30:35;31.10;46.20
3356;DHT22;1691;52.486;13.374;2023-09-12T12:33:08;31.10;46.20
3356;DHT22;1691;52.486;13.374;2023-09-12T12:36:13;31.10;46.40
3356;DHT22;1691;52.486;13.374;2023-09-12T12:38:40;31.10;46.40
3356;DHT22;1691;52.486;13.374;2023-09-12T12:41:28;31.10;46.20
3356;DHT22;1691;52.486;13.374;2023-09-12T12:44:14;31.20;46.20
3356;DHT22;1691;52.486;13.374;2023-09-12T12:49:16;31.20;46.20
3356;DHT22;1691;52.486;13.374;2023-09-12T12:51:45;31.20;46.20
3356;DHT22;1691;52.486;13.374;2023-09-12T12:54:13;31.20;46.20
3356;DHT22;1691;52.486;13.374;2023-09-12T12:56:42;31.10;46.40
3356;DHT22;1691;52.486;13.374;2023-09-12T12:59:10;31.00;46.50
3356;DHT22;1691;52.486;13.374;2023-09-12T13:01:38;31.00;46.50
3356;DHT22;1691;52.486;13.374;2023-09-12T13:04:07;31.00;46.70
3356;DHT22;1691;52.486;13.374;2023-09-12T13:06:35;30.90;46.70
3356;DHT22;1691;52.486;13.374;2023-09-12T13:09:04;30.90;46.70
3356;DHT22;1691;52.486;13.374;2023-09-12T13:11:32;30.90;46.70
3356;DHT22;1691;52.486;13.374;2023-09-12T13:14:02;30.90;46.50
3356;DHT22;1691;52.486;13.374;2023-09-12T13:16:35;30.90;46.70
3356;DHT22;1691;52.486;13.374;2023-09-12T13:19:03;30.90;46.90
3356;DHT22;1691;52.486;13.374;2023-09-12T13:21:30;30.90;46.70
3356;DHT22;1691;52.486;13.374;2023-09-12T13:23:59;30.90;46.50
3356;DHT22;1691;52.486;13.374;2023-09-12T13:26:28;30.90;46.50
3356;DHT22;1691;52.486;13.374;2023-09-12T13:28:56;30.80;46.40
3356;DHT22;1691;52.486;13.374;2023-09-12T13:31:24;30.80;46.20
3356;DHT22;1691;52.486;13.374;2023-09-12T13:33:51;30.90;46.10
3356;DHT22;1691;52.486;13.374;2023-09-12T13:36:18;30.90;45.90
3356;DHT22;1691;52.486;13.374;2023-09-12T13:38:45;30.90;45.60
3356;DHT22;1691;52.486;13.374;2023-09-12T13:41:14;30.90;45.50
3356;DHT22;1691;52.486;13.374;2023-09-12T13:43:42;30.90;45.60
3356;DHT22;1691;52.486;13.374;2023-09-12T13:46:12;30.90;45.60
3356;DHT22;1691;52.486;13.374;2023-09-12T13:48:39;30.90;45.50
3356;DHT22;1691;52.486;13.374;2023-09-12T13:51:07;30.90;45.30
3356;DHT22;1691;52.486;13.374;2023-09-12T13:53:34;30.90;45.20
3356;DHT22;1691;52.486;13.374;2023-09-12T13:56:01;30.90;45.20
3356;DHT22;1691;52.486;13.374;2023-09-12T13:58:28;30.90;45.20
3356;DHT22;1691;52.486;13.374;2023-09-12T14:01:10;30.90;45.50
3356;DHT22;1691;52.486;13.374;2023-09-12T14:03:47;30.90;45.50
3356;DHT22;1691;52.486;13.374;2023-09-12T14:06:15;31.00;45.50
3356;DHT22;1691;52.486;13.374;2023-09-12T14:08:42;31.00;45.50
3356;DHT22;1691;52.486;13.374;2023-09-12T14:11:10;31.00;45.50
3356;DHT22;1691;52.486;13.374;2023-09-12T14:13:53;31.00;45.30
3356;DHT22;1691;52.486;13.374;2023-09-12T14:16:38;31.00;45.20
3356;DHT22;1691;52.486;13.374;2023-09-12T14:19:07;31.00;45.20
3356;DHT22;1691;52.486;13.374;2023-09-12T14:21:35;31.00;45.00
3356;DHT22;1691;52.486;13.374;2023-09-12T14:24:04;31.00;45.00
3356;DHT22;1691;52.486;13.374;2023-09-12T14:26:32;31.00;45.00
3356;DHT22;1691;52.486;13.374;2023-09-12T14:28:59;31.00;45.00
3356;DHT22;1691;52.486;13.374;2023-09-12T14:31:28;31.00;45.20
3356;DHT22;1691;52.486;13.374;2023-09-12T14:33:55;30.90;45.20
3356;DHT22;1691;52.486;13.374;2023-09-12T14:36:24;30.90;45.30
3356;DHT22;1691;52.486;13.374;2023-09-12T14:38:51;30.80;45.20
3356;DHT22;1691;52.486;13.374;2023-09-12T14:41:18;30.80;45.00
3356;DHT22;1691;52.486;13.374;2023-09-12T14:43:45;30.80;45.00
3356;DHT22;1691;52.486;13.374;2023-09-12T14:46:12;30.80;45.20
3356;DHT22;1691;52.486;13.374;2023-09-12T14:48:39;30.80;45.30
3356;DHT22;1691;52.486;13.374;2023-09-12T14:51:18;30.80;45.50
3356;DHT22;1691;52.486;13.374;2023-09-12T14:53:58;30.80;45.80
3356;DHT22;1691;52.486;13.374;2023-09-12T14:56:25;30.60;47.20
3356;DHT22;1691;52.486;13.374;2023-09-12T14:58:52;30.40;49.00
3356;DHT22;1691;52.486;13.374;2023-09-12T15:01:19;30.10;50.50
3356;DHT22;1691;52.486;13.374;2023-09-12T15:03:46;29.80;51.60
3356;DHT22;1691;52.486;13.374;2023-09-12T15:06:13;29.50;52.50
3356;DHT22;1691;52.486;13.374;2023-09-12T15:08:40;29.30;53.30
3356;DHT22;1691;52.486;13.374;2023-09-12T15:11:07;29.20;53.80
3356;DHT22;1691;52.486;13.374;2023-09-12T15:13:35;29.00;53.90
3356;DHT22;1691;52.486;13.374;2023-09-12T15:16:02;28.90;53.90
3356;DHT22;1691;52.486;13.374;2023-09-12T15:18:33;28.70;54.20
3356;DHT22;1691;52.486;13.374;2023-09-12T15:21:00;28.60;54.40
3356;DHT22;1691;52.486;13.374;2023-09-12T15:23:27;28.50;54.70
3356;DHT22;1691;52.486;13.374;2023-09-12T15:25:55;28.40;54.90
3356;DHT22;1691;52.486;13.374;2023-09-12T15:28:22;28.30;54.90
3356;DHT22;1691;52.486;13.374;2023-09-12T15:30:49;28.20;55.00
3356;DHT22;1691;52.486;13.374;2023-09-12T15:33:16;28.10;55.20
3356;DHT22;1691;52.486;13.374;2023-09-12T15:35:43;28.00;55.50
3356;DHT22;1691;52.486;13.374;2023-09-12T15:38:10;27.80;55.60
3356;DHT22;1691;52.486;13.374;2023-09-12T15:40:37;27.70;56.10
3356;DHT22;1691;52.486;13.374;2023-09-12T15:43:04;27.60;56.40
3356;DHT22;1691;52.486;13.374;2023-09-12T15:45:49;27.50;56.70
3356;DHT22;1691;52.486;13.374;2023-09-12T15:48:17;27.30;57.20
3356;DHT22;1691;52.486;13.374;2023-09-12T15:50:45;27.20;57.80
3356;DHT22;1691;52.486;13.374;2023-09-12T15:53:12;27.10;58.20
3356;DHT22;1691;52.486;13.374;2023-09-12T15:55:39;27.10;58.50
3356;DHT22;1691;52.486;13.374;2023-09-12T15:58:06;27.00;58.90
3356;DHT22;1691;52.486;13.374;2023-09-12T16:00:33;27.00;59.00
3356;DHT22;1691;52.486;13.374;2023-09-12T16:03:00;27.00;59.00
3356;DHT22;1691;52.486;13.374;2023-09-12T16:05:27;27.10;59.20
3356;DHT22;1691;52.486;13.374;2023-09-12T16:07:54;27.10;59.20
3356;DHT22;1691;52.486;13.374;2023-09-12T16:10:21;27.10;59.20
3356;DHT22;1691;52.486;13.374;2023-09-12T16:12:48;27.10;59.00